Time;durP1;ratioP1;P1;durP2;ratioP2;P2;SDS_P1;SDS_P2;PMS_P1;PMS_P2;Temp;Humidity;BMP_temperature;BMP_pressure;BME280_temperature;BME280_humidity;BME280_pressure;Samples;Min_cycle;Max_cycle;Signal;HPM_P1;HPM_P2
2023/12/22 00:01:00;;;;;;;;;;;;;;;7.26;74.12;98594.75;1088099;47;967;-80
2023/12/22 00:02:03;;;;;;;;;;;;;;;7.27;74.42;98587.59;1087993;54;1069;-80
2023/12/22 00:03:04;;;;;;;;;;;;;;;7.28;74.32;98590.09;1087960;47;936;-78
2023/12/22 00:04:16;;;;;;;;;;;;;;;7.25;74.29;98568.31;1088258;54;1069;-82
2023/12/22 00:05:18;;;;;;;;;;;;;;;7.11;74.39;98594.50;1088432;54;998;-82
2023/12/22 00:06:21;;;;;;;;;;;;;;;7.05;74.54;98592.47;1088114;54;1024;-79
2023/12/22 00:07:22;;;;;;;;;;;;;;;7.09;74.41;98585.00;1088100;54;993;-80
2023/12/22 00:08:28;;;;;;;;;;;;;;;7.05;73.94;98589.00;1087961;54;1856;-79
2023/12/22 00:09:29;;;;;;;;;;;;;;;7.07;74.10;98576.38;1087903;54;1028;-81
2023/12/22 00:10:32;;;;;;;;;;;;;;;7.03;74.01;98574.03;1088103;54;994;-79
2023/12/22 00:11:33;;;;;;;;;;;;;;;6.99;73.98;98588.59;1088015;47;1008;-78
2023/12/22 00:12:33;;;;;;;;;;;;;;;7.08;73.69;98594.00;1087867;47;1067;-79
2023/12/22 00:13:37;;;;;;;;;;;;;;;6.99;73.84;98601.91;1087988;47;872;-80
2023/12/22 00:14:40;;;;;;;;;;;;;;;7.08;74.06;98601.97;1088125;54;985;-81
2023/12/22 00:15:45;;;;;;;;;;;;;;;7.01;73.61;98589.28;1088136;47;1103;-81
2023/12/22 00:16:46;;;;;;;;;;;;;;;7.02;73.45;98606.91;1088063;47;908;-82
2023/12/22 00:17:50;;;;;;;;;;;;;;;7.02;73.90;98619.38;1088107;54;985;-82
2023/12/22 00:18:52;;;;;;;;;;;;;;;7.10;73.53;98607.94;1088073;54;1282;-81
2023/12/22 00:19:58;;;;;;;;;;;;;;;7.08;73.68;98615.25;1088018;47;955;-80
2023/12/22 00:20:59;;;;;;;;;;;;;;;6.87;73.95;98616.44;1088021;54;971;-81
2023/12/22 00:22:03;;;;;;;;;;;;;;;6.84;74.19;98627.38;1088118;54;1048;-81
2023/12/22 00:23:04;;;;;;;;;;;;;;;6.96;74.07;98622.63;1087858;47;937;-80
2023/12/22 00:24:10;;;;;;;;;;;;;;;6.73;74.88;98636.44;1087950;47;1051;-81
2023/12/22 00:25:12;;;;;;;;;;;;;;;6.89;74.33;98645.50;1088071;54;1012;-81
2023/12/22 00:26:16;;;;;;;;;;;;;;;6.67;75.12;98653.81;1087948;54;952;-79
2023/12/22 00:27:16;;;;;;;;;;;;;;;6.74;74.75;98663.81;1087872;54;929;-78
2023/12/22 00:28:19;;;;;;;;;;;;;;;6.57;75.28;98645.09;1087876;54;1860;-78
2023/12/22 00:29:20;;;;;;;;;;;;;;;6.48;75.91;98638.88;1088042;54;1014;-80
2023/12/22 00:30:24;;;;;;;;;;;;;;;6.32;76.30;98631.63;1087977;47;998;-80
2023/12/22 00:31:24;;;;;;;;;;;;;;;6.32;76.36;98628.97;1087940;54;1169;-79
2023/12/22 00:32:28;;;;;;;;;;;;;;;6.26;76.56;98634.88;1088025;47;914;-79
2023/12/22 00:33:28;;;;;;;;;;;;;;;5.98;77.60;98640.22;1087969;47;847;-79
2023/12/22 00:34:32;;;;;;;;;;;;;;;5.98;77.91;98640.22;1087937;54;1062;-78
2023/12/22 00:35:35;;;;;;;;;;;;;;;6.10;77.66;98632.88;1088008;47;931;-82
2023/12/22 00:36:39;;;;;;;;;;;;;;;6.03;77.73;98632.69;1088038;54;978;-79
2023/12/22 00:37:39;;;;;;;;;;;;;;;5.99;78.03;98646.38;1087962;47;924;-79
2023/12/22 00:38:42;;;;;;;;;;;;;;;6.12;77.61;98654.81;1088026;47;1229;-80
2023/12/22 00:39:46;;;;;;;;;;;;;;;6.29;77.06;98660.28;1088263;54;1017;-79
2023/12/22 00:40:46;;;;;;;;;;;;;;;6.28;77.07;98654.16;1088161;54;931;-81
2023/12/22 00:41:52;;;;;;;;;;;;;;;6.36;76.83;98651.56;1088123;47;1033;-80
2023/12/22 00:42:52;;;;;;;;;;;;;;;6.26;77.10;98647.31;1088182;47;966;-80
2023/12/22 00:43:55;;;;;;;;;;;;;;;6.05;77.83;98641.31;1088061;54;1030;-81
2023/12/22 00:44:57;;;;;;;;;;;;;;;6.26;77.42;98626.91;1088150;54;1027;-83
2023/12/22 00:46:04;;;;;;;;;;;;;;;6.26;77.37;98644.66;1088311;47;963;-81
2023/12/22 00:47:08;;;;;;;;;;;;;;;6.32;77.56;98647.56;1088324;47;967;-81
2023/12/22 00:48:08;;;;;;;;;;;;;;;6.46;76.90;98638.22;1088144;47;1862;-79
2023/12/22 00:49:11;;;;;;;;;;;;;;;6.42;77.36;98636.03;1088155;54;1035;-81
2023/12/22 00:50:12;;;;;;;;;;;;;;;6.34;77.48;98631.47;1088074;54;986;-80
2023/12/22 00:51:16;;;;;;;;;;;;;;;6.43;77.17;98637.66;1088067;54;1044;-81
2023/12/22 00:52:17;;;;;;;;;;;;;;;6.37;76.98;98626.69;1087988;54;1314;-79
2023/12/22 00:53:20;;;;;;;;;;;;;;;6.28;77.45;98624.13;1088110;54;900;-79
2023/12/22 00:54:22;;;;;;;;;;;;;;;6.31;77.19;98624.66;1087937;54;1006;-82
2023/12/22 00:55:26;;;;;;;;;;;;;;;6.19;77.63;98608.09;1088026;47;985;-82
2023/12/22 00:56:30;;;;;;;;;;;;;;;6.22;77.39;98596.38;1087865;47;967;-79
2023/12/22 00:57:31;;;;;;;;;;;;;;;6.29;77.09;98641.69;1088043;47;974;-80
2023/12/22 00:58:31;;;;;;;;;;;;;;;6.22;77.36;98654.75;1087891;54;1154;-80
2023/12/22 00:59:35;;;;;;;;;;;;;;;6.26;77.58;98611.00;1088329;54;974;-81
2023/12/22 01:00:36;;;;;;;;;;;;;;;6.30;77.65;98611.50;1088480;47;905;-80
2023/12/22 01:01:37;;;;;;;;;;;;;;;6.42;77.45;98642.16;1088383;54;957;-80
2023/12/22 01:02:45;;;;;;;;;;;;;;;6.47;77.08;98633.75;1088347;54;1049;-80
2023/12/22 01:03:46;;;;;;;;;;;;;;;6.53;77.27;98649.03;1088647;54;908;-81
2023/12/22 01:04:47;;;;;;;;;;;;;;;6.61;76.97;98649.13;1088447;54;914;-81
2023/12/22 01:05:52;;;;;;;;;;;;;;;6.63;76.93;98644.47;1088492;46;919;-80
2023/12/22 01:06:53;;;;;;;;;;;;;;;6.59;77.02;98629.00;1088573;47;952;-79
2023/12/22 01:07:59;;;;;;;;;;;;;;;6.55;76.83;98632.00;1088517;54;1859;-80
2023/12/22 01:09:00;;;;;;;;;;;;;;;6.57;77.09;98618.56;1088434;54;939;-80
2023/12/22 01:10:07;;;;;;;;;;;;;;;6.63;77.18;98619.75;1088327;47;914;-79
2023/12/22 01:11:10;;;;;;;;;;;;;;;6.59;77.11;98611.28;1088382;47;908;-80
2023/12/22 01:12:13;;;;;;;;;;;;;;;6.59;77.27;98611.28;1088352;47;1039;-79
2023/12/22 01:13:14;;;;;;;;;;;;;;;6.52;77.46;98611.06;1088167;54;1053;-79
2023/12/22 01:14:15;;;;;;;;;;;;;;;6.62;76.82;98600.31;1088488;47;1679;-78
2023/12/22 01:15:19;;;;;;;;;;;;;;;6.69;76.81;98620.00;1088453;47;1038;-78
2023/12/22 01:16:22;;;;;;;;;;;;;;;6.76;76.77;98628.16;1088480;47;1523;-79
2023/12/22 01:17:25;;;;;;;;;;;;;;;6.78;76.74;98601.44;1088559;54;1245;-79
2023/12/22 01:18:29;;;;;;;;;;;;;;;6.82;76.56;98616.91;1088486;47;1406;-79
2023/12/22 01:21:01;;;;;;;;;;;;;;;6.75;76.75;98626.50;1088603;47;1135;-80
2023/12/22 01:22:02;;;;;;;;;;;;;;;6.78;76.68;98625.34;1088658;54;1000;-79
2023/12/22 01:23:06;;;;;;;;;;;;;;;6.77;76.33;98619.19;1088739;47;1482;-80
2023/12/22 01:24:07;;;;;;;;;;;;;;;6.74;76.35;98626.63;1088720;54;927;-80
2023/12/22 01:25:11;;;;;;;;;;;;;;;6.68;76.34;98615.66;1088690;47;1441;-79
2023/12/22 01:26:15;;;;;;;;;;;;;;;6.69;76.37;98622.66;1088790;47;1414;-79
2023/12/22 01:27:19;;;;;;;;;;;;;;;6.70;76.25;98620.81;1088615;47;1561;-80
2023/12/22 01:28:20;;;;;;;;;;;;;;;6.70;76.24;98616.34;1088535;54;1840;-80
2023/12/22 01:29:23;;;;;;;;;;;;;;;6.64;76.54;98613.47;1088619;47;1466;-80
2023/12/22 01:30:24;;;;;;;;;;;;;;;6.66;76.41;98616.81;1088725;54;950;-79
2023/12/22 01:31:28;;;;;;;;;;;;;;;6.71;76.53;98615.34;1088609;54;988;-79
2023/12/22 01:32:34;;;;;;;;;;;;;;;6.74;76.37;98618.66;1088692;47;974;-80
2023/12/22 01:33:37;;;;;;;;;;;;;;;6.86;76.42;98628.06;1088700;54;963;-80
2023/12/22 01:34:38;;;;;;;;;;;;;;;6.86;76.22;98628.06;1088483;54;1020;-79
2023/12/22 01:35:42;;;;;;;;;;;;;;;6.95;76.07;98629.78;1088475;47;1049;-79
2023/12/22 01:36:43;;;;;;;;;;;;;;;6.97;75.91;98635.78;1088381;54;983;-79
2023/12/22 01:37:47;;;;;;;;;;;;;;;6.99;75.47;98628.47;1088484;54;1008;-79
2023/12/22 01:38:48;;;;;;;;;;;;;;;7.05;75.57;98648.28;1088460;54;1285;-80
2023/12/22 01:39:51;;;;;;;;;;;;;;;6.88;75.76;98642.03;1088561;54;1013;-79
2023/12/22 01:40:52;;;;;;;;;;;;;;;6.72;75.85;98632.13;1088512;47;1114;-79
2023/12/22 01:41:58;;;;;;;;;;;;;;;6.86;75.52;98620.09;1088505;47;1447;-79
2023/12/22 01:42:58;;;;;;;;;;;;;;;6.64;75.93;98642.69;1088517;47;1412;-79
2023/12/22 01:44:02;;;;;;;;;;;;;;;6.63;76.54;98633.88;1088542;47;1494;-79
2023/12/22 01:45:04;;;;;;;;;;;;;;;6.76;76.11;98637.94;1088455;54;996;-79
2023/12/22 01:46:08;;;;;;;;;;;;;;;6.70;76.43;98640.25;1088472;47;1473;-80
2023/12/22 01:47:09;;;;;;;;;;;;;;;6.75;76.04;98641.59;1088561;47;1023;-80
2023/12/22 01:48:12;;;;;;;;;;;;;;;6.84;76.09;98651.28;1088413;47;1845;-78
2023/12/22 01:49:14;;;;;;;;;;;;;;;6.87;75.86;98646.50;1088531;54;1027;-80
2023/12/22 01:50:15;;;;;;;;;;;;;;;6.81;76.31;98635.66;1088588;54;1043;-79
2023/12/22 01:51:19;;;;;;;;;;;;;;;6.84;75.91;98635.34;1088522;47;1539;-80
2023/12/22 01:52:19;;;;;;;;;;;;;;;6.77;76.29;98636.97;1088509;54;1020;-80
2023/12/22 01:53:20;;;;;;;;;;;;;;;6.65;76.41;98631.91;1088561;54;960;-80
2023/12/22 01:54:24;;;;;;;;;;;;;;;6.57;76.38;98631.84;1088474;54;1020;-80
2023/12/22 01:55:25;;;;;;;;;;;;;;;6.62;76.39;98632.19;1088518;47;1492;-80
2023/12/22 01:56:29;;;;;;;;;;;;;;;6.61;76.08;98641.16;1088536;54;985;-80
2023/12/22 01:57:34;;;;;;;;;;;;;;;6.63;76.22;98635.69;1088648;54;974;-79
2023/12/22 01:58:39;;;;;;;;;;;;;;;6.56;76.16;98625.66;1088515;54;1691;-80
2023/12/22 01:59:39;;;;;;;;;;;;;;;6.58;75.95;98643.28;1088496;47;1695;-80
2023/12/22 02:00:43;;;;;;;;;;;;;;;6.59;76.25;98636.97;1088645;46;1008;-80
2023/12/22 02:01:45;;;;;;;;;;;;;;;6.64;76.03;98635.53;1088593;54;965;-80
2023/12/22 02:02:49;;;;;;;;;;;;;;;6.64;75.97;98632.88;1088505;47;951;-80
2023/12/22 02:03:52;;;;;;;;;;;;;;;6.55;76.04;98625.84;1088486;54;1031;-79
2023/12/22 02:04:56;;;;;;;;;;;;;;;6.59;76.37;98624.56;1088538;54;1096;-79
2023/12/22 02:05:57;;;;;;;;;;;;;;;6.56;76.11;98627.50;1088482;47;1503;-81
2023/12/22 02:07:01;;;;;;;;;;;;;;;6.36;76.76;98625.03;1088428;47;1441;-79
2023/12/22 02:08:02;;;;;;;;;;;;;;;6.31;77.07;98616.69;1088545;54;1279;-80
2023/12/22 02:09:06;;;;;;;;;;;;;;;6.36;76.80;98611.75;1088454;47;1852;-78
2023/12/22 02:10:08;;;;;;;;;;;;;;;6.35;77.05;98606.59;1088434;54;1079;-79
2023/12/22 02:11:12;;;;;;;;;;;;;;;6.36;76.99;98603.78;1088468;54;1034;-79
2023/12/22 02:14:09;;;;;;;;;;;;;;;6.16;77.70;98600.47;1088809;54;1234;-81
2023/12/22 02:15:13;;;;;;;;;;;;;;;6.07;78.18;98596.88;1088632;54;1076;-82
2023/12/22 02:16:21;;;;;;;;;;;;;;;6.18;77.96;98597.66;1088603;47;1484;-81
2023/12/22 02:17:25;;;;;;;;;;;;;;;6.20;77.53;98591.19;1088628;54;959;-81
2023/12/22 02:18:33;;;;;;;;;;;;;;;6.11;78.12;98593.94;1088626;54;1380;-81
2023/12/22 02:19:40;;;;;;;;;;;;;;;6.08;78.43;98598.56;1088685;54;978;-82
2023/12/22 02:20:44;;;;;;;;;;;;;;;6.20;77.86;98595.69;1088354;46;968;-81
2023/12/22 02:21:59;;;;;;;;;;;;;;;6.20;78.14;98596.50;1088257;47;937;-81
2023/12/22 02:23:05;;;;;;;;;;;;;;;6.15;78.19;98598.78;1088372;54;1034;-80
2023/12/22 02:24:06;;;;;;;;;;;;;;;6.15;78.67;98592.63;1088420;54;969;-80
2023/12/22 02:25:10;;;;;;;;;;;;;;;6.17;78.58;98593.31;1088325;47;971;-81
2023/12/22 02:26:16;;;;;;;;;;;;;;;6.21;78.35;98597.34;1088278;47;983;-82
2023/12/22 02:27:25;;;;;;;;;;;;;;;6.19;78.49;98600.16;1088349;47;922;-80
2023/12/22 02:28:26;;;;;;;;;;;;;;;6.20;78.71;98606.31;1088366;46;1896;-81
2023/12/22 02:29:27;;;;;;;;;;;;;;;6.23;78.61;98606.00;1088286;47;868;-81
2023/12/22 02:30:34;;;;;;;;;;;;;;;6.24;78.35;98597.88;1088377;54;889;-82
2023/12/22 02:31:37;;;;;;;;;;;;;;;6.29;78.67;98600.06;1088416;54;993;-81
2023/12/22 02:32:40;;;;;;;;;;;;;;;6.18;79.42;98602.97;1088227;47;964;-80
2023/12/22 02:33:44;;;;;;;;;;;;;;;6.25;78.67;98598.69;1088392;46;949;-81
2023/12/22 02:34:47;;;;;;;;;;;;;;;6.37;78.42;98589.53;1088529;47;978;-83
2023/12/22 02:35:52;;;;;;;;;;;;;;;6.42;78.10;98583.75;1088752;46;944;-81
2023/12/22 02:36:59;;;;;;;;;;;;;;;6.45;78.05;98587.91;1088623;47;957;-81
2023/12/22 02:38:09;;;;;;;;;;;;;;;6.45;78.41;98590.56;1088496;54;1355;-83
2023/12/22 02:39:11;;;;;;;;;;;;;;;6.47;78.04;98592.09;1088458;47;907;-82
2023/12/22 02:40:14;;;;;;;;;;;;;;;6.29;79.18;98588.63;1088589;47;1015;-82
2023/12/22 02:41:16;;;;;;;;;;;;;;;6.33;78.80;98577.53;1088148;47;1077;-83
2023/12/22 02:42:29;;;;;;;;;;;;;;;6.38;78.55;98574.41;1088515;47;950;-82
2023/12/22 02:43:30;;;;;;;;;;;;;;;6.43;78.35;98584.56;1088475;46;961;-82
2023/12/22 02:44:38;;;;;;;;;;;;;;;6.42;78.41;98588.25;1088480;54;982;-83
2023/12/22 02:45:40;;;;;;;;;;;;;;;6.47;78.40;98591.25;1088613;47;966;-82
2023/12/22 02:46:52;;;;;;;;;;;;;;;6.50;78.30;98588.31;1088605;54;1030;-82
2023/12/22 02:50:28;;;;;;;;;;;;;;;6.28;78.89;98600.25;1088031;54;1154;-84
2023/12/22 02:51:29;;;;;;;;;;;;;;;6.22;79.38;98607.81;1088539;47;1003;-82
2023/12/22 02:52:33;;;;;;;;;;;;;;;6.27;79.39;98627.75;1088697;54;982;-82
2023/12/22 02:53:37;;;;;;;;;;;;;;;6.39;77.86;98565.47;1088503;47;972;-83
2023/12/22 02:54:41;;;;;;;;;;;;;;;6.62;76.56;98571.13;1088430;46;954;-81
2023/12/22 02:55:42;;;;;;;;;;;;;;;6.72;75.30;98579.81;1088353;47;898;-81
2023/12/22 02:56:45;;;;;;;;;;;;;;;6.82;75.13;98594.81;1088178;47;949;-81
2023/12/22 02:57:49;;;;;;;;;;;;;;;6.91;74.75;98574.47;1088300;54;1012;-81
2023/12/22 02:58:49;;;;;;;;;;;;;;;7.06;74.40;98580.03;1088436;47;1231;-82
2023/12/22 02:59:50;;;;;;;;;;;;;;;7.21;73.70;98586.41;1088448;54;1013;-81
2023/12/22 03:00:54;;;;;;;;;;;;;;;7.27;73.71;98588.44;1088292;54;988;-80
2023/12/22 03:01:55;;;;;;;;;;;;;;;7.33;73.69;98586.94;1088450;54;985;-81
2023/12/22 03:02:58;;;;;;;;;;;;;;;7.32;73.42;98591.44;1088413;54;1002;-83
2023/12/22 03:03:59;;;;;;;;;;;;;;;7.36;73.17;98591.13;1088503;54;1031;-82
2023/12/22 03:05:03;;;;;;;;;;;;;;;7.52;73.06;98569.91;1088510;54;1002;-83
2023/12/22 03:06:05;;;;;;;;;;;;;;;7.53;73.05;98582.22;1088351;54;945;-83
2023/12/22 03:07:08;;;;;;;;;;;;;;;7.68;72.52;98574.47;1088254;47;893;-82
2023/12/22 03:08:09;;;;;;;;;;;;;;;7.71;72.55;98573.28;1088427;54;1329;-81
2023/12/22 03:09:15;;;;;;;;;;;;;;;7.73;72.31;98581.97;1088362;47;1866;-82
2023/12/22 03:10:17;;;;;;;;;;;;;;;7.81;72.48;98582.78;1088349;54;1063;-80
2023/12/22 03:11:20;;;;;;;;;;;;;;;7.75;72.51;98586.09;1088464;54;982;-81
2023/12/22 03:12:23;;;;;;;;;;;;;;;7.85;72.44;98596.59;1088435;54;996;-81
2023/12/22 03:13:34;;;;;;;;;;;;;;;7.92;72.12;98578.16;1088624;54;1019;-83
2023/12/22 03:14:44;;;;;;;;;;;;;;;7.67;73.00;98588.75;1088517;54;973;-82
2023/12/22 03:15:59;;;;;;;;;;;;;;;7.67;73.17;98585.25;1088373;47;954;-82
2023/12/22 03:17:08;;;;;;;;;;;;;;;7.76;73.27;98586.94;1088475;54;958;-81
2023/12/22 03:18:11;;;;;;;;;;;;;;;7.80;72.88;98582.97;1088485;46;1274;-82
2023/12/22 03:19:12;;;;;;;;;;;;;;;7.85;72.80;98585.13;1088468;47;950;-82
2023/12/22 03:20:18;;;;;;;;;;;;;;;7.87;73.01;98591.13;1088538;54;976;-82
2023/12/22 03:21:18;;;;;;;;;;;;;;;7.88;72.79;98601.59;1088348;47;942;-81
2023/12/22 03:22:22;;;;;;;;;;;;;;;7.89;73.00;98603.28;1088268;47;1027;-82
2023/12/22 03:23:23;;;;;;;;;;;;;;;7.89;73.15;98597.94;1088534;54;991;-81
2023/12/22 03:24:31;;;;;;;;;;;;;;;7.77;73.16;98592.09;1088389;47;955;-81
2023/12/22 03:25:32;;;;;;;;;;;;;;;7.75;73.36;98578.13;1088399;47;967;-81
2023/12/22 03:26:36;;;;;;;;;;;;;;;7.76;73.50;98569.16;1088518;54;1050;-82
2023/12/22 03:27:38;;;;;;;;;;;;;;;7.86;72.74;98579.63;1088461;54;1093;-81
2023/12/22 03:28:41;;;;;;;;;;;;;;;7.76;73.34;98582.47;1088419;54;1860;-83
2023/12/22 03:31:15;;;;;;;;;;;;;;;7.93;72.88;98583.34;1088537;47;891;-83
2023/12/22 03:32:34;;;;;;;;;;;;;;;7.96;72.60;98590.16;1088564;47;956;-80
2023/12/22 03:33:38;;;;;;;;;;;;;;;7.88;72.97;98595.47;1088451;54;932;-83
2023/12/22 03:34:39;;;;;;;;;;;;;;;8.03;72.41;98587.69;1088521;47;984;-82
2023/12/22 03:35:43;;;;;;;;;;;;;;;8.04;72.53;98587.50;1088543;54;989;-81
2023/12/22 03:36:53;;;;;;;;;;;;;;;8.06;72.23;98595.31;1088423;54;999;-82
2023/12/22 03:37:59;;;;;;;;;;;;;;;8.07;72.09;98578.34;1088302;47;918;-82
2023/12/22 03:39:02;;;;;;;;;;;;;;;8.13;72.11;98583.00;1088501;54;900;-82
2023/12/22 03:40:09;;;;;;;;;;;;;;;8.10;71.62;98596.66;1088343;47;976;-81
2023/12/22 03:41:11;;;;;;;;;;;;;;;8.11;71.55;98591.16;1088306;54;986;-79
2023/12/22 03:42:14;;;;;;;;;;;;;;;8.08;71.43;98598.66;1088265;47;972;-80
2023/12/22 03:43:17;;;;;;;;;;;;;;;8.17;71.00;98589.69;1088357;54;929;-82
2023/12/22 03:44:21;;;;;;;;;;;;;;;8.04;71.15;98594.63;1088314;47;997;-81
2023/12/22 03:45:22;;;;;;;;;;;;;;;8.01;71.00;98589.66;1088406;54;1006;-80
2023/12/22 03:46:27;;;;;;;;;;;;;;;8.10;70.65;98578.84;1088391;47;990;-81
2023/12/22 03:47:28;;;;;;;;;;;;;;;8.10;70.49;98567.38;1088377;47;901;-81
2023/12/22 03:48:31;;;;;;;;;;;;;;;8.09;70.40;98571.03;1088207;54;1316;-82
2023/12/22 03:49:32;;;;;;;;;;;;;;;8.03;69.96;98572.53;1088189;47;1844;-80
2023/12/22 03:50:35;;;;;;;;;;;;;;;7.97;70.05;98587.31;1088283;54;1172;-82
2023/12/22 03:51:37;;;;;;;;;;;;;;;7.93;69.69;98593.97;1088142;47;935;-81
2023/12/22 03:52:38;;;;;;;;;;;;;;;8.04;69.68;98592.81;1088037;47;995;-81
2023/12/22 03:53:41;;;;;;;;;;;;;;;8.11;69.19;98604.47;1088197;54;1008;-80
2023/12/22 03:54:49;;;;;;;;;;;;;;;8.15;69.02;98609.47;1088493;54;1015;-81
2023/12/22 03:56:01;;;;;;;;;;;;;;;8.10;69.04;98612.63;1088468;54;1004;-81
2023/12/22 03:57:04;;;;;;;;;;;;;;;8.19;68.25;98608.97;1088691;47;947;-83
2023/12/22 03:58:08;;;;;;;;;;;;;;;8.09;68.21;98610.97;1088370;47;1287;-82
2023/12/22 03:59:18;;;;;;;;;;;;;;;8.24;67.67;98613.81;1088455;54;1000;-83
2023/12/22 04:00:23;;;;;;;;;;;;;;;8.30;67.72;98605.16;1085256;47;919;-81
2023/12/22 04:01:26;;;;;;;;;;;;;;;8.17;67.70;98595.00;1088584;47;975;-81
2023/12/22 04:02:30;;;;;;;;;;;;;;;8.20;67.62;98596.50;1088464;54;1006;-83
2023/12/22 04:03:32;;;;;;;;;;;;;;;8.22;67.35;98613.97;1088314;54;1001;-82
2023/12/22 04:04:40;;;;;;;;;;;;;;;8.34;67.06;98601.19;1088375;54;927;-81
2023/12/22 04:05:43;;;;;;;;;;;;;;;8.38;66.90;98596.34;1088489;54;964;-81
2023/12/22 04:06:48;;;;;;;;;;;;;;;8.52;66.68;98587.72;1088512;47;885;-81
2023/12/22 04:07:49;;;;;;;;;;;;;;;8.55;66.46;98582.06;1088545;54;979;-81
2023/12/22 04:08:49;;;;;;;;;;;;;;;8.68;66.19;98575.41;1088364;54;1330;-80
2023/12/22 04:09:53;;;;;;;;;;;;;;;8.57;66.32;98580.06;1088150;54;1860;-81
2023/12/22 04:10:53;;;;;;;;;;;;;;;8.43;66.89;98591.34;1088121;54;1006;-81
2023/12/22 04:11:59;;;;;;;;;;;;;;;8.41;66.91;98591.53;1088201;54;943;-80
2023/12/22 04:13:00;;;;;;;;;;;;;;;8.43;66.51;98588.69;1088295;54;1028;-81
2023/12/22 04:14:03;;;;;;;;;;;;;;;8.55;66.38;98586.53;1088203;47;981;-81
2023/12/22 04:15:05;;;;;;;;;;;;;;;8.42;66.39;98584.34;1088282;47;856;-82
2023/12/22 04:16:09;;;;;;;;;;;;;;;8.56;66.53;98582.88;1088261;47;948;-81
2023/12/22 04:17:10;;;;;;;;;;;;;;;8.61;66.19;98582.38;1088142;47;995;-82
2023/12/22 04:18:13;;;;;;;;;;;;;;;8.47;66.75;98583.84;1088026;47;1415;-80
2023/12/22 04:19:14;;;;;;;;;;;;;;;8.42;66.28;98587.00;1088211;54;956;-82
2023/12/22 04:20:15;;;;;;;;;;;;;;;8.37;66.40;98592.03;1087953;54;901;-80
2023/12/22 04:21:18;;;;;;;;;;;;;;;8.45;66.45;98589.34;1088155;47;983;-81
2023/12/22 04:22:19;;;;;;;;;;;;;;;8.23;67.09;98577.53;1088101;54;1048;-81
2023/12/22 04:23:22;;;;;;;;;;;;;;;8.33;66.83;98582.69;1088207;47;981;-81
2023/12/22 04:24:23;;;;;;;;;;;;;;;8.37;66.77;98579.53;1088091;54;999;-82
2023/12/22 04:25:27;;;;;;;;;;;;;;;8.34;67.11;98571.88;1088101;47;999;-81
2023/12/22 04:26:28;;;;;;;;;;;;;;;8.25;67.08;98576.38;1088104;54;1003;-80
2023/12/22 04:27:34;;;;;;;;;;;;;;;8.04;67.40;98563.56;1087984;47;905;-80
2023/12/22 04:28:35;;;;;;;;;;;;;;;8.14;67.55;98579.34;1087986;54;1436;-81
2023/12/22 04:29:38;;;;;;;;;;;;;;;7.90;68.11;98586.31;1087984;47;1846;-81
2023/12/22 04:30:39;;;;;;;;;;;;;;;7.94;68.35;98576.16;1087976;54;1116;-81
2023/12/22 04:31:42;;;;;;;;;;;;;;;8.21;67.72;98580.38;1088053;54;1000;-79
2023/12/22 04:32:43;;;;;;;;;;;;;;;8.23;68.02;98589.00;1088046;54;993;-81
2023/12/22 04:33:46;;;;;;;;;;;;;;;7.93;68.46;98588.66;1088039;54;969;-81
2023/12/22 04:34:47;;;;;;;;;;;;;;;8.02;68.72;98591.34;1088432;47;915;-81
2023/12/22 04:35:51;;;;;;;;;;;;;;;8.08;68.82;98590.66;1088351;47;839;-81
2023/12/22 04:36:55;;;;;;;;;;;;;;;8.36;67.85;98598.34;1088466;47;1084;-82
2023/12/22 04:37:56;;;;;;;;;;;;;;;8.15;68.52;98585.53;1088500;47;1288;-83
2023/12/22 04:39:02;;;;;;;;;;;;;;;8.25;68.58;98608.31;1088672;46;880;-83
2023/12/22 04:40:03;;;;;;;;;;;;;;;8.17;68.67;98616.28;1088648;47;931;-81
2023/12/22 04:41:06;;;;;;;;;;;;;;;8.19;69.01;98608.13;1088768;54;1110;-83
2023/12/22 04:42:07;;;;;;;;;;;;;;;8.28;68.86;98602.66;1088687;54;969;-82
2023/12/22 04:43:13;;;;;;;;;;;;;;;8.14;69.38;98608.63;1088700;54;1019;-80
2023/12/22 04:44:14;;;;;;;;;;;;;;;8.07;69.64;98615.63;1088697;46;882;-83
2023/12/22 04:45:20;;;;;;;;;;;;;;;8.15;69.83;98612.13;1088547;54;1001;-80
2023/12/22 04:46:22;;;;;;;;;;;;;;;8.06;69.88;98614.78;1088707;54;975;-81
2023/12/22 04:47:25;;;;;;;;;;;;;;;8.00;70.00;98606.63;1088725;47;983;-82
2023/12/22 04:48:33;;;;;;;;;;;;;;;8.00;70.43;98619.94;1088635;54;1275;-82
2023/12/22 04:49:36;;;;;;;;;;;;;;;8.08;70.09;98619.94;1088760;54;1846;-81
2023/12/22 04:50:37;;;;;;;;;;;;;;;8.17;70.00;98616.28;1088631;54;1152;-81
2023/12/22 04:51:42;;;;;;;;;;;;;;;8.06;70.26;98614.78;1088721;47;1015;-82
2023/12/22 04:52:54;;;;;;;;;;;;;;;8.16;70.38;98622.63;1088754;46;899;-83
2023/12/22 04:53:58;;;;;;;;;;;;;;;8.06;70.37;98611.28;1088656;54;933;-83
2023/12/22 04:54:59;;;;;;;;;;;;;;;8.15;70.09;98612.97;1088742;54;969;-82
2023/12/22 04:56:03;;;;;;;;;;;;;;;8.01;70.30;98618.94;1088818;54;1020;-82
2023/12/22 04:57:11;;;;;;;;;;;;;;;8.04;70.38;98610.59;1088657;54;913;-81
2023/12/22 04:58:17;;;;;;;;;;;;;;;8.09;70.04;98625.09;1088682;54;1350;-81
2023/12/22 04:59:19;;;;;;;;;;;;;;;7.96;70.40;98620.25;1088678;54;913;-80
2023/12/22 05:00:23;;;;;;;;;;;;;;;7.98;70.14;98622.75;1088655;47;882;-82
2023/12/22 05:01:24;;;;;;;;;;;;;;;8.10;69.86;98644.56;1088767;54;930;-82
2023/12/22 05:02:28;;;;;;;;;;;;;;;8.10;70.02;98641.91;1088753;54;992;-82
2023/12/22 05:03:29;;;;;;;;;;;;;;;8.16;69.48;98651.06;1089078;46;949;-82
2023/12/22 05:04:34;;;;;;;;;;;;;;;8.23;69.51;98647.56;1088680;54;968;-83
2023/12/22 05:05:35;;;;;;;;;;;;;;;8.07;69.68;98652.88;1088722;54;999;-81
2023/12/22 05:06:46;;;;;;;;;;;;;;;8.16;69.16;98651.91;1088718;54;988;-80
2023/12/22 05:07:47;;;;;;;;;;;;;;;8.24;69.15;98654.56;1088660;54;953;-81
2023/12/22 05:08:48;;;;;;;;;;;;;;;8.21;68.87;98648.75;1088656;54;1179;-82
2023/12/22 05:09:55;;;;;;;;;;;;;;;8.30;68.31;98653.09;1088617;47;1852;-82
2023/12/22 05:10:56;;;;;;;;;;;;;;;8.20;68.78;98649.75;1088694;54;923;-81
2023/12/22 05:11:58;;;;;;;;;;;;;;;8.07;68.87;98647.56;1088474;47;1100;-80
2023/12/22 05:13:02;;;;;;;;;;;;;;;8.21;68.59;98659.38;1088354;47;1032;-81
2023/12/22 05:14:05;;;;;;;;;;;;;;;8.12;69.16;98661.22;1088333;54;986;-81
2023/12/22 05:15:10;;;;;;;;;;;;;;;8.33;68.67;98657.25;1088381;54;1023;-81
2023/12/22 05:16:12;;;;;;;;;;;;;;;8.21;68.57;98649.59;1088582;54;944;-82
2023/12/22 05:17:16;;;;;;;;;;;;;;;8.35;68.43;98644.59;1088725;46;899;-81
2023/12/22 05:18:17;;;;;;;;;;;;;;;8.41;68.47;98654.59;1088429;46;1366;-80
2023/12/22 05:19:21;;;;;;;;;;;;;;;8.36;68.65;98664.91;1088638;54;1013;-80
2023/12/22 05:20:22;;;;;;;;;;;;;;;8.15;68.94;98674.19;1088511;47;931;-81
2023/12/22 05:21:27;;;;;;;;;;;;;;;8.27;68.81;98662.25;1088614;46;971;-82
2023/12/22 05:22:29;;;;;;;;;;;;;;;8.31;68.88;98660.06;1088449;54;1008;-82
2023/12/22 05:24:50;;;;;;;;;;;;;;;8.26;69.04;98670.41;1088329;47;1036;-80
2023/12/22 05:25:51;;;;;;;;;;;;;;;8.24;68.81;98664.41;1088497;47;949;-79
2023/12/22 05:26:56;;;;;;;;;;;;;;;8.37;68.84;98669.25;1088526;54;1018;-80
2023/12/22 05:27:57;;;;;;;;;;;;;;;8.35;68.63;98661.44;1088557;46;1288;-79
2023/12/22 05:29:00;;;;;;;;;;;;;;;8.34;68.80;98658.91;1088254;47;1046;-79
2023/12/22 05:30:15;;;;;;;;;;;;;;;8.37;68.68;98661.25;1088444;54;1854;-80
2023/12/22 05:31:19;;;;;;;;;;;;;;;8.31;68.43;98659.25;1088531;54;1043;-79
2023/12/22 05:32:20;;;;;;;;;;;;;;;8.35;68.26;98655.25;1088505;46;1030;-79
2023/12/22 05:33:23;;;;;;;;;;;;;;;8.15;68.70;98654.72;1088443;47;956;-80
2023/12/22 05:34:25;;;;;;;;;;;;;;;8.37;68.14;98664.75;1088328;47;990;-80
2023/12/22 05:35:29;;;;;;;;;;;;;;;8.35;67.93;98665.91;1088274;54;994;-80
2023/12/22 05:36:30;;;;;;;;;;;;;;;8.20;68.40;98674.53;1088073;47;941;-80
2023/12/22 05:37:35;;;;;;;;;;;;;;;8.23;68.39;98684.03;1088133;54;985;-79
2023/12/22 05:38:38;;;;;;;;;;;;;;;8.28;68.16;98703.84;1088205;54;1381;-81
2023/12/22 05:39:43;;;;;;;;;;;;;;;8.05;68.50;98713.41;1088294;54;1052;-81
2023/12/22 05:40:44;;;;;;;;;;;;;;;7.58;69.92;98702.25;1088097;47;891;-78
2023/12/22 05:41:48;;;;;;;;;;;;;;;7.67;70.34;98704.94;1088186;54;866;-79
2023/12/22 05:42:48;;;;;;;;;;;;;;;7.58;71.38;98704.91;1088250;46;921;-79
2023/12/22 05:43:52;;;;;;;;;;;;;;;7.70;71.56;98710.78;1088171;47;930;-79
2023/12/22 05:44:53;;;;;;;;;;;;;;;7.65;72.08;98716.56;1088099;54;984;-78
2023/12/22 05:46:03;;;;;;;;;;;;;;;7.69;71.68;98721.59;1088199;47;968;-79
2023/12/22 05:47:04;;;;;;;;;;;;;;;7.55;72.62;98720.34;1088128;47;937;-79
2023/12/22 05:48:08;;;;;;;;;;;;;;;7.63;71.86;98713.25;1088152;54;1254;-79
2023/12/22 05:49:08;;;;;;;;;;;;;;;7.46;72.92;98714.16;1088119;54;881;-79
2023/12/22 05:50:12;;;;;;;;;;;;;;;7.25;73.92;98728.66;1088246;54;1865;-79